Moosonee Airport
CYMO : now visible

Aeroporto :











RITROVATECI SU...

 
LOGIN :

Iscrizione | Disclaimer

   EN    FR    IT 

 









Sommario :    VFR   VFR Marginale   IFR   IFR Intensivo   IFR Molto Intensivo
Visibilità : 
Base nubi : 
>= 8 km
>= 3000ft
5 / 8 km
1000 / 3000 ft
1500m / 5 km
500 / 1000 ft
800 / 1500m
200 / 500 ft
< 800m
< 200 ft
Simboli :   Temporali  Nebbia  Neve Forte  Precipitazioni Forti  Vento > 20 kt






- Altitudine del aeroporto : 30 ft
- Codice IATA : YMO


CYMO - Moosonee

ULTIMO METAR :
  • 182100Z AUTO 07011KT 9SM OVC130 M16/M20 A3010 RMK SLP195

METARs OBSOLETI :
  • 182000Z AUTO 06006KT 9SM CLR M16/M21 A3013 RMK SLP205
  • 181900Z AUTO 07006KT 9SM CLR M18/M22 A3018 RMK SLP222

TAF TAF CYMO
Valido dal 18 a 18 ore il 19 a 06 ore UTC


181741Z 1818/1906 07009KT P6SM BKN170
BECMG 1904/1906 01008KT RMK FCST BASED ON AUTO OBS. NXT FCST BY 190000Z



MetMap, La meteo Aeronautica in un colpo d'occhio ! - Copyright ORBIFLY Dicembre 2007 - Disclaimer

ORBIFLY MET'MAP TEAM :

Programmazione e sviluppo : Alexandra Zaïnal
Concezione : Baudouin d'Aumeries
Aiuto per la programmazione : Marc-Olivier Méhu
Supporto tecnico e logistico : Manuel Goepfert
Aiuto per la traduzione : Arnaldo La Scala

Contatto : metmap@orbifly.com




FONTI E CREDITI :

   NOAA       Earth
Advisory